Time;durP1;ratioP1;P1;durP2;ratioP2;P2;SDS_P1;SDS_P2;PMS_P1;PMS_P2;Temp;Humidity;BMP_temperature;BMP_pressure;BME280_temperature;BME280_humidity;BME280_pressure;Samples;Min_cycle;Max_cycle;Signal;HPM_P1;HPM_P2
2023/09/21 00:01:35;;;;;;;4.10;2.80;;;14.50;99.90;;;15.37;100.00;97072.38;10430242;28;20252;-84
2023/09/21 00:06:40;;;;;;;3.00;2.72;;;14.50;99.90;;;15.29;100.00;97062.72;10433172;28;20267;-81
2023/09/21 00:11:44;;;;;;;3.17;2.97;;;14.40;99.90;;;15.18;100.00;97059.00;10430439;28;20284;-82
2023/09/21 00:16:48;;;;;;;4.30;2.97;;;14.30;99.90;;;15.07;100.00;97055.28;10424832;28;20232;-83
2023/09/21 00:21:54;;;;;;;3.08;2.85;;;14.30;99.90;;;15.08;100.00;97049.31;10435328;28;20790;-83
2023/09/21 00:26:59;;;;;;;3.63;3.00;;;14.20;99.90;;;15.10;100.00;97037.34;10435867;28;20221;-82
2023/09/21 00:32:04;;;;;;;3.88;2.80;;;14.20;99.90;;;15.08;100.00;97033.88;10437777;28;20327;-84
2023/09/21 00:37:11;;;;;;;3.47;2.90;;;14.10;99.90;;;14.93;100.00;97025.72;10441584;28;20638;-83
2023/09/21 00:42:15;;;;;;;3.08;2.67;;;14.10;99.90;;;14.92;100.00;97022.28;10441518;28;20255;-81
2023/09/21 00:47:18;;;;;;;3.42;3.15;;;14.10;99.90;;;14.87;100.00;97024.72;10433371;28;20225;-82
2023/09/21 00:52:23;;;;;;;3.75;3.45;;;14.10;99.90;;;14.92;100.00;97021.44;10442063;28;20224;-84
2023/09/21 00:57:26;;;;;;;3.00;2.80;;;14.10;99.90;;;14.90;100.00;97023.09;10437778;28;20720;-83
2023/09/21 01:02:30;;;;;;;3.00;2.75;;;14.00;99.90;;;14.83;100.00;97012.63;10437007;28;20275;-83
2023/09/21 01:07:36;;;;;;;2.90;2.70;;;14.00;99.90;;;14.79;100.00;97010.81;10439052;28;20333;-84
2023/09/21 01:12:44;;;;;;;2.78;2.58;;;14.00;99.90;;;14.83;100.00;97010.06;10435437;28;20613;-84
2023/09/21 01:17:47;;;;;;;2.90;2.70;;;13.90;99.90;;;14.75;100.00;97001.25;10433195;28;21160;-85
2023/09/21 01:23:11;;;;;;;3.03;2.70;;;13.80;99.90;;;14.66;100.00;97013.88;10437038;28;20225;-84
2023/09/21 01:28:19;;;;;;;2.83;2.63;;;13.70;99.90;;;14.51;100.00;97009.16;10435268;28;20229;-84
2023/09/21 01:33:23;;;;;;;3.35;3.15;;;13.60;99.90;;;14.49;100.00;97004.78;10431224;28;20291;-83
2023/09/21 01:38:27;;;;;;;3.60;3.30;;;13.70;99.90;;;14.57;100.00;96988.78;10432295;28;20226;-81
2023/09/21 01:43:32;;;;;;;3.45;3.15;;;13.80;99.90;;;14.66;100.00;97002.72;10437834;28;20763;-83
2023/09/21 01:48:36;;;;;;;3.42;3.10;;;13.80;99.90;;;14.64;100.00;96995.81;10435361;28;20221;-86
2023/09/21 01:53:40;;;;;;;3.08;2.88;;;13.80;99.90;;;14.63;100.00;96988.06;10436767;28;20234;-83
2023/09/21 01:58:47;;;;;;;2.85;2.65;;;13.70;99.90;;;14.59;100.00;96981.09;10433495;28;20757;-85
2023/09/21 02:03:51;;;;;;;3.38;3.08;;;13.60;99.90;;;14.48;100.00;96970.50;10446885;28;20220;-85
2023/09/21 02:08:57;;;;;;;2.70;2.50;;;13.60;99.90;;;14.42;100.00;96963.50;10437050;28;20624;-85
2023/09/21 02:14:02;;;;;;;2.63;2.42;;;13.50;99.90;;;14.36;100.00;96960.72;10440704;28;20678;-83
2023/09/21 02:19:07;;;;;;;3.58;2.92;;;13.50;99.90;;;14.36;100.00;96958.16;10435448;28;20213;-84
2023/09/21 02:24:10;;;;;;;3.28;2.70;;;13.40;99.90;;;14.32;100.00;96956.34;10438876;28;20233;-84
2023/09/21 02:29:17;;;;;;;2.80;2.60;;;13.40;99.90;;;14.24;100.00;96944.97;10453760;28;20230;-83
2023/09/21 02:34:21;;;;;;;3.03;2.83;;;13.40;99.90;;;14.34;100.00;96949.56;10440484;28;20225;-83
2023/09/21 02:39:25;;;;;;;3.63;3.05;;;13.50;99.90;;;14.38;100.00;96948.78;10432425;28;20233;-82
2023/09/21 02:44:30;;;;;;;3.72;3.47;;;13.60;99.90;;;14.46;100.00;96943.00;10431385;28;20280;-82
2023/09/21 02:49:33;;;;;;;3.88;3.50;;;13.70;99.90;;;14.60;100.00;96931.41;10425256;28;20260;-83
2023/09/21 02:54:36;;;;;;;4.80;4.40;;;13.80;99.90;;;14.53;100.00;96924.34;10436127;28;20721;-82
2023/09/21 02:59:42;;;;;;;4.60;4.15;;;13.80;99.90;;;14.67;100.00;96922.16;10427607;28;20228;-84
2023/09/21 03:04:52;;;;;;;3.85;3.15;;;13.90;99.90;;;14.74;100.00;96927.50;10433276;28;20227;-84
2023/09/21 03:09:56;;;;;;;3.10;2.72;;;13.90;99.90;;;14.73;100.00;96918.03;10440429;28;20244;-84
2023/09/21 03:15:00;;;;;;;4.03;3.33;;;13.80;99.90;;;14.60;100.00;96905.69;10435453;28;20222;-83
2023/09/21 03:20:28;;;;;;;3.80;3.50;;;13.80;99.90;;;14.46;100.00;96914.72;10431922;28;20291;-83
2023/09/21 03:25:33;;;;;;;3.72;3.42;;;13.70;99.90;;;14.64;100.00;96903.22;10432236;28;20233;-82
2023/09/21 03:30:39;;;;;;;4.03;3.72;;;13.90;99.90;;;14.50;100.00;96894.25;10432192;28;20228;-84
2023/09/21 03:35:44;;;;;;;4.43;4.03;;;13.80;99.90;;;14.47;100.00;96891.59;10429914;28;20220;-83
2023/09/21 03:40:49;;;;;;;4.28;3.97;;;13.80;99.90;;;14.48;100.00;96884.75;10435212;28;20225;-85
2023/09/21 03:45:54;;;;;;;4.43;4.03;;;13.80;99.90;;;14.51;100.00;96887.44;10426746;28;20320;-84
2023/09/21 03:50:57;;;;;;;3.85;3.55;;;13.80;99.90;;;14.63;100.00;96874.91;10426463;28;20707;-84
2023/09/21 03:56:02;;;;;;;4.55;4.07;;;13.90;99.90;;;14.70;100.00;96866.50;10426239;28;20763;-85
2023/09/21 04:01:09;;;;;;;4.10;3.60;;;14.00;99.90;;;14.83;100.00;96870.25;10439458;28;20245;-84
2023/09/21 04:06:15;;;;;;;4.72;3.47;;;14.00;99.90;;;14.82;100.00;96871.97;10434759;28;20230;-83
2023/09/21 04:11:19;;;;;;;4.10;3.78;;;14.00;99.90;;;14.80;100.00;96865.03;10435354;28;20321;-84
2023/09/21 04:16:24;;;;;;;4.22;3.80;;;14.10;99.90;;;14.96;100.00;96863.69;10429933;28;20278;-82
2023/09/21 04:21:27;;;;;;;4.07;3.78;;;14.20;99.90;;;14.99;100.00;96853.47;10428684;28;20226;-82
2023/09/21 04:26:31;;;;;;;3.42;3.20;;;14.20;99.90;;;14.98;100.00;96856.88;10429512;28;20236;-84
2023/09/21 04:31:35;;;;;;;4.10;3.70;;;14.20;99.90;;;14.99;100.00;96853.47;10430231;28;20991;-84
2023/09/21 04:36:39;;;;;;;4.10;3.78;;;14.10;99.90;;;14.97;100.00;96850.00;10424581;28;20221;-84
2023/09/21 04:41:42;;;;;;;4.07;3.60;;;14.10;99.90;;;14.91;100.00;96850.75;10428161;28;20229;-83
2023/09/21 04:46:47;;;;;;;4.60;3.45;;;14.00;99.90;;;14.84;100.00;96848.84;10437586;28;20660;-82
2023/09/21 04:51:50;;;;;;;4.35;3.92;;;14.10;99.90;;;14.86;100.00;96850.63;10430979;28;20611;-85
2023/09/21 04:56:54;;;;;;;4.00;3.70;;;14.00;99.90;;;14.89;100.00;96846.38;10430717;28;20603;-85
2023/09/21 05:01:58;;;;;;;4.20;3.78;;;14.10;99.90;;;14.95;100.00;96854.25;10436260;28;20222;-82
2023/09/21 05:07:02;;;;;;;4.20;3.90;;;14.20;99.90;;;15.04;100.00;96845.03;10435384;28;20231;-82
2023/09/21 05:12:06;;;;;;;4.20;3.90;;;14.20;99.90;;;15.09;100.00;96850.28;10436383;28;20303;-84
2023/09/21 05:17:11;;;;;;;3.90;3.58;;;14.20;99.90;;;15.06;100.00;96843.38;10439060;28;20772;-82
2023/09/21 05:22:15;;;;;;;4.10;3.60;;;14.20;99.90;;;15.01;100.00;96842.38;10438964;28;20289;-83
2023/09/21 05:27:21;;;;;;;3.67;3.38;;;14.20;99.90;;;15.03;100.00;96834.72;10434762;28;20226;-85
2023/09/21 05:32:27;;;;;;;4.30;3.90;;;14.20;99.90;;;15.12;100.00;96834.91;10437449;28;20229;-85
2023/09/21 05:37:30;;;;;;;3.90;3.60;;;14.30;99.90;;;15.29;100.00;96843.00;10436804;28;20236;-84
2023/09/21 05:42:34;;;;;;;3.88;3.53;;;14.40;99.90;;;15.50;100.00;96843.47;10431803;28;20634;-85
2023/09/21 05:47:38;;;;;;;4.15;3.70;;;14.60;99.90;;;15.59;100.00;96837.63;10435540;28;20230;-83
2023/09/21 05:52:41;;;;;;;4.13;3.78;;;14.80;99.90;;;15.90;98.99;96834.00;10432724;28;20736;-84
2023/09/21 05:57:47;;;;;;;3.47;3.17;;;15.00;99.90;;;16.10;97.83;96831.81;10435293;28;20229;-84
2023/09/21 06:02:54;;;;;;;3.95;3.63;;;15.20;99.90;;;16.32;96.26;96824.47;10434599;28;20225;-85
2023/09/21 06:07:58;;;;;;;4.72;3.80;;;15.40;99.90;;;16.57;95.44;96818.03;10432385;28;20915;-84
2023/09/21 06:13:02;;;;;;;4.70;3.45;;;15.60;99.90;;;16.99;94.77;96806.66;10426940;28;20226;-84
2023/09/21 06:18:07;;;;;;;3.10;2.83;;;16.00;99.90;;;17.98;90.89;96813.16;10438247;28;20238;-85
2023/09/21 06:23:10;;;;;;;4.38;3.40;;;16.80;99.90;;;18.89;85.14;96819.22;10457073;28;20278;-85
2023/09/21 06:28:15;;;;;;;3.83;3.55;;;17.50;99.90;;;19.45;81.54;96799.69;10451670;28;20225;-85
2023/09/21 06:33:23;;;;;;;3.60;3.30;;;18.10;99.90;;;20.44;76.46;96794.84;10437320;28;20220;-86
2023/09/21 06:38:27;;;;;;;5.43;3.67;;;19.00;99.90;;;21.48;70.52;96795.66;10441685;28;20241;-78
2023/09/21 06:43:32;;;;;;;2.92;2.72;;;19.80;99.90;;;22.21;65.66;96794.50;10434843;28;20282;-80
2023/09/21 06:48:36;;;;;;;3.10;2.70;;;20.20;99.90;;;22.90;62.14;96797.44;10429069;28;20233;-79
2023/09/21 06:53:40;;;;;;;2.80;2.60;;;20.70;99.90;;;22.02;64.91;96775.47;10433711;28;20252;-80
2023/09/21 06:58:43;;;;;;;5.07;3.28;;;20.20;99.90;;;21.42;68.01;96780.94;10422966;28;20229;-80
2023/09/21 07:03:48;;;;;;;3.67;3.20;;;19.80;99.90;;;21.06;70.01;96781.84;10427219;28;20237;-79
2023/09/21 07:08:52;;;;;;;3.88;3.30;;;19.60;99.90;;;20.72;72.42;96794.00;10432889;28;20256;-77
2023/09/21 07:13:55;;;;;;;4.32;3.92;;;19.20;99.90;;;20.40;74.26;96779.25;10454383;28;20225;-76
2023/09/21 07:19:00;;;;;;;3.70;3.40;;;19.00;99.90;;;20.22;76.26;96783.56;10436492;28;20236;-79
2023/09/21 07:24:05;;;;;;;3.95;3.55;;;18.90;99.90;;;20.12;76.55;96771.44;10422797;28;20276;-78
2023/09/21 07:29:10;;;;;;;4.93;4.53;;;18.90;99.90;;;20.05;76.76;96772.28;10428252;28;20324;-77
2023/09/21 07:34:15;;;;;;;7.03;4.40;;;18.90;99.90;;;19.93;76.17;96767.06;10427624;28;20251;-81
2023/09/21 07:39:18;;;;;;;4.70;4.30;;;18.70;99.90;;;19.87;76.77;96756.69;10429245;28;20276;-78
2023/09/21 07:44:22;;;;;;;5.30;3.85;;;18.80;99.90;;;20.14;76.47;96761.91;10439723;28;20245;-78
2023/09/21 07:49:27;;;;;;;4.43;3.85;;;19.10;99.90;;;20.53;75.05;96765.47;10430782;28;20247;-78
2023/09/21 07:54:33;;;;;;;4.05;3.60;;;19.50;99.90;;;20.61;76.14;96766.31;10434767;28;20237;-78
2023/09/21 07:59:36;;;;;;;3.75;3.08;;;19.60;99.90;;;21.05;74.95;96755.00;10424861;28;20252;-79
2023/09/21 08:04:40;;;;;;;8.23;3.80;;;20.10;99.90;;;21.93;73.17;96754.72;10436425;28;20255;-79
2023/09/21 08:09:44;;;;;;;3.53;2.92;;;21.00;99.90;;;22.79;69.50;96744.56;10419405;28;20233;-78
2023/09/21 08:14:47;;;;;;;3.47;3.17;;;22.10;99.90;;;23.46;64.10;96734.31;10424018;28;20232;-77
2023/09/21 08:19:52;;;;;;;3.78;2.90;;;22.80;99.90;;;24.02;61.59;96736.22;10424663;28;20251;-78
2023/09/21 08:24:55;;;;;;;3.92;2.85;;;23.40;99.90;;;24.44;58.99;96730.44;10417523;28;20271;-79
2023/09/21 08:29:59;;;;;;;2.67;2.38;;;23.60;99.90;;;24.53;53.95;96722.44;10427999;28;20260;-79
2023/09/21 08:35:04;;;;;;;2.92;2.60;;;23.70;99.90;;;24.99;51.45;96711.16;10430679;28;20228;-78
2023/09/21 08:40:09;;;;;;;3.25;2.58;;;24.20;99.10;;;24.97;52.33;96707.72;10435616;28;20233;-79
2023/09/21 08:45:14;;;;;;;3.72;2.50;;;24.20;99.00;;;25.52;49.89;96704.03;10436868;28;20220;-78
2023/09/21 08:50:21;;;;;;;2.40;2.20;;;24.80;97.50;;;25.88;48.94;96700.69;10441355;28;20614;-79
2023/09/21 08:55:26;;;;;;;2.90;2.70;;;25.20;96.60;;;25.98;50.91;96689.09;10433737;28;20236;-79
2023/09/21 09:00:30;;;;;;;2.92;2.40;;;25.40;97.90;;;26.38;50.32;96691.63;10434951;28;20820;-79
2023/09/21 09:05:36;;;;;;;3.28;2.60;;;25.80;97.00;;;26.36;50.12;96688.22;10444841;28;20228;-79
2023/09/21 09:10:41;;;;;;;2.88;2.50;;;25.50;97.40;;;26.00;49.84;96685.56;10431148;28;20225;-78
2023/09/21 09:15:45;;;;;;;2.90;2.63;;;25.10;97.10;;;25.87;50.62;96684.13;10436461;28;20309;-79
2023/09/21 09:20:50;;;;;;;2.90;2.60;;;24.80;97.00;;;25.75;49.58;96681.72;10440792;28;20244;-80
2023/09/21 09:25:55;;;;;;;2.90;2.60;;;24.70;97.00;;;25.46;49.33;96675.38;10441164;28;20479;-79
2023/09/21 09:30:59;;;;;;;2.63;2.42;;;24.50;96.90;;;25.53;48.69;96676.97;10440970;28;20224;-81
2023/09/21 09:36:06;;;;;;;3.10;2.45;;;24.50;95.90;;;25.81;50.12;96679.88;10445054;28;20225;-79
2023/09/21 09:41:14;;;;;;;2.40;2.20;;;24.80;97.10;;;26.31;47.88;96676.13;10436247;28;20252;-79
2023/09/21 09:46:19;;;;;;;2.83;2.40;;;25.40;95.40;;;26.82;47.53;96673.97;10439111;28;20221;-78
2023/09/21 09:51:33;;;;;;;4.97;2.50;;;26.10;94.90;;;27.18;46.53;96661.66;10441457;28;20236;-79
2023/09/21 09:56:41;;;;;;;2.75;2.55;;;26.50;94.60;;;27.36;44.91;96644.50;10447900;28;20221;-80
2023/09/21 10:01:45;;;;;;;2.85;2.33;;;26.70;93.00;;;27.18;45.24;96639.78;10443046;28;20665;-79
2023/09/21 10:06:50;;;;;;;2.40;2.20;;;26.50;92.80;;;27.26;45.84;96637.78;10438068;28;20587;-78
2023/09/21 10:11:57;;;;;;;2.30;2.10;;;26.50;93.30;;;27.20;43.21;96618.75;10436748;28;20233;-79
2023/09/21 10:17:05;;;;;;;2.20;2.00;;;26.70;91.00;;;27.53;43.65;96614.28;10426900;28;20290;-78
2023/09/21 10:22:28;;;;;;;2.40;2.20;;;26.80;91.90;;;27.81;40.64;96607.28;10437492;28;20266;-78
2023/09/21 10:27:36;;;;;;;2.17;1.98;;;27.20;88.40;;;28.03;37.41;96599.56;10437403;28;20225;-80
2023/09/21 10:32:44;;;;;;;2.00;1.90;;;27.40;83.90;;;27.73;41.45;96580.38;10434847;28;20223;-75
2023/09/21 10:37:53;;;;;;;2.22;2.08;;;27.10;89.00;;;27.91;39.81;96567.59;10437364;28;20231;-76
2023/09/21 10:42:56;;;;;;;3.35;2.58;;;27.00;87.60;;;27.94;38.69;96576.22;10426772;28;20294;-77
2023/09/21 10:47:59;;;;;;;43.58;31.20;;;27.20;83.90;;;27.91;42.05;96557.06;10424473;28;20269;-76
2023/09/21 10:53:05;;;;;;;7.07;6.38;;;27.20;90.20;;;27.75;40.80;96551.41;10409129;28;20225;-76
2023/09/21 10:58:08;;;;;;;2.42;2.30;;;27.00;89.10;;;27.46;41.27;96545.31;10412987;28;20219;-76
2023/09/21 11:03:13;;;;;;;2.35;2.10;;;26.80;87.80;;;27.84;41.59;96535.38;10427067;28;20221;-76
2023/09/21 11:08:18;;;;;;;3.08;2.78;;;27.10;88.20;;;28.06;40.46;96520.63;10416252;28;20323;-76
2023/09/21 11:13:21;;;;;;;3.30;2.60;;;27.40;86.90;;;28.24;40.11;96520.91;10424174;28;20237;-75
2023/09/21 11:18:28;;;;;;;2.80;2.38;;;27.50;87.00;;;27.92;41.78;96519.38;10411618;28;20232;-77
2023/09/21 11:23:34;;;;;;;2.72;2.53;;;27.30;89.10;;;27.97;41.19;96512.22;10420070;28;20271;-77
2023/09/21 11:28:39;;;;;;;2.55;2.35;;;27.40;88.00;;;27.87;41.21;96495.88;10420326;28;20230;-76
2023/09/21 11:33:42;;;;;;;2.83;2.50;;;27.20;87.50;;;27.55;43.67;96489.91;10424267;28;20757;-77
2023/09/21 11:38:50;;;;;;;2.42;2.25;;;26.80;90.70;;;27.59;42.36;96472.31;10412202;28;20235;-76
2023/09/21 11:43:53;;;;;;;3.53;2.35;;;26.80;90.00;;;27.64;43.26;96459.84;10407716;28;20278;-76
2023/09/21 11:48:58;;;;;;;2.35;2.13;;;26.90;90.50;;;27.74;43.02;96456.03;10415794;28;20267;-76
2023/09/21 11:54:04;;;;;;;2.60;2.40;;;26.90;90.50;;;27.93;42.45;96450.16;10425113;28;20250;-77
2023/09/21 11:59:09;;;;;;;2.30;2.20;;;27.20;89.30;;;27.99;43.09;96439.47;10424222;28;20843;-77
2023/09/21 12:04:16;;;;;;;2.15;1.95;;;27.20;91.10;;;28.15;41.34;96448.50;10421432;28;20232;-76
2023/09/21 12:09:21;;;;;;;2.38;2.10;;;27.40;88.70;;;27.76;41.48;96422.69;10410907;28;20279;-76
2023/09/21 12:14:24;;;;;;;2.28;1.90;;;27.00;88.30;;;27.91;41.21;96416.09;10411385;28;20248;-76
2023/09/21 12:19:28;;;;;;;1.90;1.70;;;27.20;88.20;;;28.28;40.95;96414.78;10419015;28;20244;-77
2023/09/21 12:24:34;;;;;;;1.67;1.58;;;27.70;86.80;;;28.17;40.99;96402.00;10417993;28;20233;-77
2023/09/21 12:29:38;;;;;;;2.83;1.70;;;27.50;85.80;;;28.40;39.93;96395.06;10424627;28;20287;-77
2023/09/21 12:34:42;;;;;;;2.05;1.80;;;27.60;85.50;;;28.32;40.05;96389.22;10419190;28;20320;-77
2023/09/21 12:39:46;;;;;;;2.38;1.73;;;27.50;85.10;;;28.28;40.07;96378.81;10420724;28;20240;-77
2023/09/21 12:44:50;;;;;;;1.65;1.55;;;27.50;85.60;;;28.29;39.64;96370.00;10421678;28;20231;-77
2023/09/21 12:49:53;;;;;;;1.73;1.63;;;27.60;84.50;;;28.41;40.14;96370.47;10424381;28;20229;-77
2023/09/21 12:54:58;;;;;;;1.77;1.35;;;27.60;85.50;;;28.22;39.40;96365.91;10416940;28;20297;-77
2023/09/21 13:00:01;;;;;;;1.60;1.50;;;27.40;84.80;;;28.14;39.50;96348.72;10418164;28;20228;-77
2023/09/21 13:05:06;;;;;;;1.45;1.33;;;27.40;83.80;;;28.17;39.10;96349.44;10422260;28;20626;-77
2023/09/21 13:10:14;;;;;;;2.30;1.70;;;27.40;83.20;;;28.04;39.28;96332.41;10423448;28;20222;-77
2023/09/21 13:15:18;;;;;;;1.75;1.50;;;27.20;84.20;;;27.96;39.25;96334.50;10439519;28;20248;-76
2023/09/21 13:20:21;;;;;;;1.70;1.40;;;27.10;83.50;;;28.04;37.91;96327.16;10444739;28;20232;-76
2023/09/21 13:25:27;;;;;;;2.33;1.60;;;27.10;82.10;;;28.25;38.21;96326.38;10425998;28;20772;-77
2023/09/21 13:30:30;;;;;;;1.80;1.60;;;27.40;83.00;;;28.16;39.65;96326.72;10420826;28;20822;-77
2023/09/21 13:35:34;;;;;;;1.60;1.45;;;27.30;84.20;;;28.46;38.16;96302.84;10423152;28;21582;-79
2023/09/21 13:40:39;;;;;;;1.67;1.30;;;27.50;83.20;;;28.50;38.67;96296.53;10426327;28;20236;-78
2023/09/21 13:45:42;;;;;;;2.13;1.50;;;27.50;82.70;;;28.64;37.38;96291.56;10415968;28;20713;-77
2023/09/21 13:50:48;;;;;;;1.63;1.40;;;27.80;81.80;;;28.85;37.62;96283.75;10417488;28;20221;-77
2023/09/21 13:55:53;;;;;;;1.77;1.30;;;28.00;81.10;;;28.84;37.18;96277.63;10413834;28;20627;-77
2023/09/21 14:00:57;;;;;;;1.92;1.58;;;28.00;81.10;;;28.69;38.36;96268.59;10419790;28;20225;-76
2023/09/21 14:06:01;;;;;;;1.98;1.30;;;27.80;82.80;;;28.81;37.79;96277.75;10420066;28;20260;-78
2023/09/21 14:11:06;;;;;;;3.10;1.63;;;28.00;82.00;;;28.98;38.73;96270.00;10420050;28;20279;-78
2023/09/21 14:16:10;;;;;;;1.20;1.15;;;28.20;82.60;;;28.95;38.25;96269.28;10421397;28;20264;-77
2023/09/21 14:21:14;;;;;;;1.77;1.50;;;28.20;81.90;;;28.90;39.07;96263.34;10425347;28;20229;-77
2023/09/21 14:26:19;;;;;;;2.08;1.40;;;28.10;83.40;;;29.11;39.00;96249.34;10423046;28;20233;-79
2023/09/21 14:31:23;;;;;;;3.20;1.60;;;28.30;83.40;;;29.16;38.48;96247.38;10423134;28;20275;-78
2023/09/21 14:36:26;;;;;;;1.80;1.40;;;28.30;83.50;;;28.96;39.58;96234.19;10428540;28;20232;-78
2023/09/21 14:41:31;;;;;;;2.13;1.42;;;28.20;83.90;;;28.93;39.94;96234.28;10424760;28;20240;-78
2023/09/21 14:46:34;;;;;;;2.53;1.67;;;28.10;84.20;;;28.95;39.19;96227.19;10416687;28;22204;-78
2023/09/21 14:51:38;;;;;;;2.00;1.80;;;28.40;82.80;;;28.85;38.78;96236.41;10418191;28;20225;-78
2023/09/21 14:56:45;;;;;;;2.05;1.60;;;28.30;82.60;;;29.03;39.47;96238.28;10421067;28;20225;-77
2023/09/21 15:01:49;;;;;;;2.20;1.50;;;28.50;82.50;;;28.97;39.98;96228.00;10421282;28;20232;-76
2023/09/21 15:06:52;;;;;;;1.83;1.30;;;28.30;83.70;;;29.08;38.04;96233.69;10418068;28;20808;-78
2023/09/21 15:11:57;;;;;;;1.42;1.33;;;28.50;80.40;;;28.79;37.74;96228.75;10419772;28;20603;-78
2023/09/21 15:17:01;;;;;;;1.20;1.10;;;28.20;80.40;;;28.65;38.55;96224.94;10425083;28;21032;-78
2023/09/21 15:22:04;;;;;;;4.78;1.58;;;27.90;81.50;;;28.77;37.43;96236.72;10430163;28;20240;-81
2023/09/21 15:27:10;;;;;;;2.63;1.17;;;28.00;80.40;;;28.73;37.61;96238.63;10458598;28;20219;-79
2023/09/21 15:32:14;;;;;;;1.85;1.38;;;28.10;80.40;;;28.49;37.91;96236.97;10427466;28;20312;-79
2023/09/21 15:37:20;;;;;;;2.45;1.40;;;27.80;80.90;;;28.26;39.39;96233.47;10431080;28;20251;-80
2023/09/21 15:42:24;;;;;;;2.58;1.20;;;27.40;82.90;;;28.16;38.87;96240.00;10434895;28;20225;-79
2023/09/21 15:47:27;;;;;;;1.65;1.00;;;27.30;82.20;;;28.01;39.41;96237.97;10431877;28;20235;-79
2023/09/21 15:52:31;;;;;;;2.15;1.40;;;27.10;82.50;;;28.06;38.42;96236.00;10429878;28;20228;-78
2023/09/21 15:57:35;;;;;;;1.55;1.30;;;27.10;81.80;;;27.94;39.08;96237.34;10443031;28;20233;-79
2023/09/21 16:02:39;;;;;;;1.52;1.30;;;27.00;81.90;;;27.79;39.52;96230.91;10433156;28;20293;-79
2023/09/21 16:07:42;;;;;;;1.52;1.35;;;26.80;82.70;;;27.69;39.45;96223.38;10426097;28;20675;-78
2023/09/21 16:12:48;;;;;;;1.40;1.30;;;26.70;83.10;;;27.62;39.53;96235.91;10414798;28;20535;-77
2023/09/21 16:17:52;;;;;;;1.75;1.15;;;26.70;83.50;;;27.54;39.73;96219.56;10416453;28;20300;-77
2023/09/21 16:22:55;;;;;;;2.88;1.48;;;26.50;83.40;;;27.32;40.57;96217.72;10415635;28;20286;-78
2023/09/21 16:28:00;;;;;;;1.30;1.20;;;26.30;84.30;;;27.03;41.51;96215.22;10415307;28;20282;-78
2023/09/21 16:33:04;;;;;;;1.30;1.20;;;26.00;85.80;;;26.82;42.66;96211.59;10414910;28;20225;-79
2023/09/21 16:38:08;;;;;;;1.48;1.38;;;25.80;87.30;;;26.69;42.71;96216.38;10418062;28;20233;-78
2023/09/21 16:43:13;;;;;;;1.70;1.52;;;25.60;87.60;;;26.46;44.14;96204.84;10419418;28;20221;-78
2023/09/21 16:48:17;;;;;;;1.40;1.30;;;25.40;90.20;;;26.33;46.34;96206.16;10414255;28;20701;-78
2023/09/21 16:53:21;;;;;;;3.20;1.50;;;25.20;91.70;;;26.02;48.02;96212.34;10432855;28;20277;-79
2023/09/21 16:58:25;;;;;;;2.13;1.45;;;24.90;93.00;;;25.79;49.29;96212.16;10415997;28;20287;-77
2023/09/21 17:03:29;;;;;;;1.83;1.55;;;24.70;93.60;;;25.53;50.36;96213.78;10427492;28;20279;-78
2023/09/21 17:08:33;;;;;;;1.67;1.58;;;24.50;94.80;;;25.27;51.13;96208.44;10442499;28;20315;-77
2023/09/21 17:13:37;;;;;;;7.07;6.43;;;24.20;95.50;;;25.03;52.35;96202.91;10425651;28;20274;-78
2023/09/21 17:18:41;;;;;;;6.85;6.25;;;23.90;96.80;;;24.85;53.45;96191.19;10439139;28;20229;-79
2023/09/21 17:23:45;;;;;;;6.30;5.70;;;23.80;97.20;;;24.65;54.06;96194.34;10425524;28;20572;-77
2023/09/21 17:28:50;;;;;;;4.55;4.15;;;23.60;97.90;;;24.49;54.94;96198.22;10420940;28;20259;-79
2023/09/21 17:33:53;;;;;;;3.60;3.30;;;23.40;98.50;;;24.31;56.80;96188.19;10420913;28;20232;-78
2023/09/21 17:38:56;;;;;;;2.97;2.78;;;23.20;99.70;;;24.15;58.28;96193.81;10418935;28;20240;-78
2023/09/21 17:44:01;;;;;;;2.65;2.45;;;23.00;99.90;;;23.92;60.66;96196.06;10423002;28;20324;-78
2023/09/21 17:49:05;;;;;;;2.15;1.55;;;22.80;99.90;;;23.78;59.64;96209.44;10417435;28;20229;-78
2023/09/21 17:54:09;;;;;;;2.80;1.60;;;22.70;99.90;;;23.69;60.18;96209.56;10417166;28;20236;-78
2023/09/21 17:59:14;;;;;;;2.13;1.80;;;22.70;99.90;;;23.61;61.92;96213.22;10423243;28;20251;-77
2023/09/21 18:04:18;;;;;;;2.05;1.83;;;22.60;99.90;;;23.50;62.88;96209.13;10412869;28;20232;-77
2023/09/21 18:09:21;;;;;;;2.10;1.85;;;22.50;99.90;;;23.39;64.22;96211.94;10423580;28;20235;-78
2023/09/21 18:14:26;;;;;;;2.58;1.65;;;22.40;99.90;;;23.23;63.78;96216.59;10413582;28;20229;-77
2023/09/21 18:19:32;;;;;;;3.05;1.70;;;22.30;99.90;;;23.17;63.15;96206.28;10412994;28;20233;-77
2023/09/21 18:24:35;;;;;;;3.67;1.60;;;22.10;99.90;;;23.05;62.17;96227.38;10416679;28;21043;-77
2023/09/21 18:29:40;;;;;;;2.25;1.50;;;22.00;99.90;;;22.99;62.91;96227.50;10412287;28;20332;-77
2023/09/21 18:34:43;;;;;;;2.88;1.60;;;22.00;99.90;;;22.84;64.35;96232.06;10412419;28;20244;-77
2023/09/21 18:39:47;;;;;;;2.42;1.48;;;21.80;99.90;;;22.84;65.73;96250.28;10417311;28;20263;-77
2023/09/21 18:44:53;;;;;;;2.08;1.98;;;21.80;99.90;;;22.81;67.95;96265.13;10413906;28;20224;-78
2023/09/21 18:49:56;;;;;;;2.45;2.10;;;21.80;99.90;;;22.82;68.63;96261.63;10420826;28;20319;-81
2023/09/21 18:54:59;;;;;;;2.58;2.08;;;21.70;99.90;;;22.66;70.02;96269.72;10426023;28;20222;-80
2023/09/21 19:00:14;;;;;;;2.50;2.25;;;21.70;99.90;;;22.55;70.77;96291.56;10416252;28;20252;-79
2023/09/21 19:05:17;;;;;;;3.05;2.10;;;21.50;99.90;;;22.54;71.04;96298.53;10428443;28;20286;-78
2023/09/21 19:10:21;;;;;;;2.75;2.15;;;21.50;99.90;;;22.53;71.92;96314.19;10445053;28;20849;-80
2023/09/21 19:15:29;;;;;;;2.58;2.13;;;21.50;99.90;;;22.46;73.00;96321.22;10450749;28;20228;-81
2023/09/21 19:20:34;;;;;;;3.67;2.40;;;21.40;99.90;;;22.40;74.32;96332.59;10457735;28;20232;-80
2023/09/21 19:25:37;;;;;;;3.25;2.40;;;21.30;99.90;;;22.16;77.05;96380.63;10439234;28;20682;-81
2023/09/21 19:30:50;;;;;;;3.42;3.05;;;21.30;99.90;;;22.11;79.92;96444.00;10434166;28;20224;-79
2023/09/21 19:36:52;;;;;;;3.05;2.65;;;21.30;99.90;;;21.80;82.25;96485.94;10436253;28;20225;-79
2023/09/21 19:42:10;;;;;;;2.92;2.67;;;21.10;99.90;;;21.26;87.40;96519.28;10436580;28;20237;-83
2023/09/21 19:47:25;;;;;;;2.50;2.30;;;20.60;99.90;;;20.63;89.67;96543.88;10425451;28;20217;-83
2023/09/21 19:52:39;;;;;;;1.75;1.33;;;19.90;99.90;;;20.18;89.18;96582.03;10463373;28;20236;-82
2023/09/21 19:57:43;;;;;;;1.33;1.15;;;19.50;99.90;;;19.63;91.14;96594.09;10451423;28;20239;-81
2023/09/21 20:03:04;;;;;;;1.75;0.98;;;18.90;99.90;;;19.12;92.80;96599.19;10462563;28;20221;-81
2023/09/21 20:08:07;;;;;;;1.27;1.00;;;18.40;99.90;;;18.83;94.06;96618.09;10470799;28;20217;-83
2023/09/21 20:13:10;;;;;;;1.98;1.10;;;18.10;99.90;;;18.67;94.77;96617.09;10478704;28;20225;-81
2023/09/21 20:18:15;;;;;;;0.90;0.90;;;17.90;99.90;;;18.64;92.82;96629.16;10463084;28;20229;-81
2023/09/21 20:23:18;;;;;;;1.08;0.95;;;17.90;99.90;;;18.24;95.18;96636.66;10462719;28;20243;-80
2023/09/21 20:28:24;;;;;;;1.30;0.77;;;17.70;99.90;;;18.22;95.26;96638.38;10456551;28;21808;-80
2023/09/21 20:33:29;;;;;;;0.73;0.70;;;17.60;99.90;;;18.13;95.85;96627.97;10464117;28;20710;-81
2023/09/21 20:38:33;;;;;;;0.82;0.82;;;17.50;99.90;;;17.98;98.56;96613.19;10466272;28;20328;-82
2023/09/21 20:43:37;;;;;;;0.90;0.90;;;17.40;99.90;;;17.70;99.17;96604.31;10468925;28;20221;-81
2023/09/21 20:48:42;;;;;;;1.02;0.93;;;17.10;99.90;;;17.64;100.00;96606.84;10470810;28;20289;-80
2023/09/21 20:53:45;;;;;;;0.95;0.93;;;17.10;99.90;;;17.70;100.00;96618.09;10466019;28;20239;-80
2023/09/21 20:58:49;;;;;;;1.05;0.98;;;17.00;99.90;;;17.56;100.00;96622.28;10470637;28;20226;-79
2023/09/21 21:03:53;;;;;;;1.00;1.00;;;16.90;99.90;;;17.55;100.00;96612.81;10456115;28;20230;-79